createdAt,value
2022-12-01T00:01:09.682Z,99919.56
2022-12-01T00:03:37.103Z,99919.66
2022-12-01T00:06:16.036Z,99905.22
2022-12-01T00:09:02.256Z,99908.94
2022-12-01T00:11:29.109Z,99903.06
2022-12-01T00:13:55.636Z,99910.72
2022-12-01T00:16:22.384Z,99908.38
2022-12-01T00:18:53.612Z,99906.00
2022-12-01T00:21:22.786Z,99908.75
2022-12-01T00:23:51.816Z,99899.00
2022-12-01T00:26:20.031Z,99903.16
2022-12-01T00:28:54.607Z,99902.81
2022-12-01T00:31:22.101Z,99902.03
2022-12-01T00:33:48.778Z,99902.31
2022-12-01T00:36:15.525Z,99897.53
2022-12-01T00:38:42.154Z,99901.91
2022-12-01T00:41:08.871Z,99897.13
2022-12-01T00:43:35.577Z,99896.03
2022-12-01T00:46:02.315Z,99900.09
2022-12-01T00:48:29.081Z,99902.31
2022-12-01T00:50:55.790Z,99894.00
2022-12-01T00:53:23.061Z,99900.81
2022-12-01T00:55:49.687Z,99902.53
2022-12-01T00:58:16.373Z,99907.16
2022-12-01T01:00:43.155Z,99898.38
2022-12-01T01:03:10.659Z,99900.06
2022-12-01T01:05:38.781Z,99903.81
2022-12-01T01:08:12.921Z,99900.94
2022-12-01T01:10:44.272Z,99899.66
2022-12-01T01:13:12.189Z,99901.84
2022-12-01T01:15:39.213Z,99900.19
2022-12-01T01:18:06.515Z,99909.78
2022-12-01T01:20:33.568Z,99905.00
2022-12-01T01:23:00.202Z,99902.03
2022-12-01T01:25:26.821Z,99903.50
2022-12-01T01:27:53.347Z,99909.09
2022-12-01T01:30:20.875Z,99907.19
2022-12-01T01:32:47.554Z,99900.53
2022-12-01T01:35:14.157Z,99911.91
2022-12-01T01:37:40.779Z,99913.19
2022-12-01T01:40:07.959Z,99917.75
2022-12-01T01:42:34.455Z,99915.69
2022-12-01T01:45:01.072Z,99913.66
2022-12-01T01:47:35.990Z,99911.06
2022-12-01T01:50:09.710Z,99909.31
2022-12-01T01:52:40.272Z,99916.28
2022-12-01T01:55:07.899Z,99910.88
2022-12-01T01:57:35.153Z,99914.31
2022-12-01T02:00:09.251Z,99911.38
2022-12-01T02:02:43.958Z,99918.13
2022-12-01T02:05:17.903Z,99923.84
2022-12-01T02:07:45.615Z,99925.13
2022-12-01T02:10:14.564Z,99923.16
2022-12-01T02:12:53.002Z,99916.97
2022-12-01T02:15:43.058Z,99922.13
2022-12-01T02:18:22.031Z,99926.75
2022-12-01T02:21:25.615Z,99919.91
2022-12-01T02:24:04.227Z,99919.88
2022-12-01T02:26:43.770Z,99916.06
2022-12-01T02:29:17.310Z,99920.00
2022-12-01T02:32:02.898Z,99916.28
2022-12-01T02:34:40.222Z,99917.03
2022-12-01T02:37:10.195Z,99916.91
2022-12-01T02:39:39.588Z,99915.84
2022-12-01T02:42:40.158Z,99909.94
2022-12-01T02:45:11.601Z,99918.34
2022-12-01T02:47:41.223Z,99899.03
2022-12-01T02:50:10.175Z,99907.28
2022-12-01T02:52:38.687Z,99916.28
2022-12-01T02:55:06.025Z,99907.97
2022-12-01T02:57:32.530Z,99911.63
2022-12-01T03:00:00.022Z,99909.34
2022-12-01T03:02:48.826Z,99910.78
2022-12-01T03:05:25.135Z,99907.44
2022-12-01T03:08:06.128Z,99915.59
2022-12-01T03:10:55.750Z,99908.56
2022-12-01T03:13:57.890Z,99900.53
2022-12-01T03:16:36.957Z,99913.75
2022-12-01T03:19:13.041Z,99910.75
2022-12-01T03:21:49.052Z,99909.41
2022-12-01T03:24:19.557Z,99908.81
2022-12-01T03:26:57.006Z,99917.59
2022-12-01T03:29:46.458Z,99907.34
2022-12-01T03:32:19.503Z,99908.94
2022-12-01T03:35:11.091Z,99905.22
2022-12-01T03:37:43.399Z,99896.31
2022-12-01T03:40:14.738Z,99896.38
2022-12-01T03:42:52.916Z,99903.94
2022-12-01T03:45:31.475Z,99909.09
2022-12-01T03:47:58.141Z,99898.78
2022-12-01T03:50:35.628Z,99907.50
2022-12-01T03:53:19.383Z,99905.03
2022-12-01T03:55:52.405Z,99906.91
2022-12-01T03:58:23.298Z,99904.78
2022-12-01T04:00:53.395Z,99916.22
2022-12-01T04:03:23.275Z,99921.00
2022-12-01T04:05:49.872Z,99913.78
2022-12-01T04:08:16.693Z,99910.44
2022-12-01T04:10:43.415Z,99907.34
2022-12-01T04:13:16.841Z,99910.50
2022-12-01T04:15:43.823Z,99909.69
2022-12-01T04:18:10.351Z,99906.38
2022-12-01T04:20:36.857Z,99917.44
2022-12-01T04:23:03.591Z,99915.22
2022-12-01T04:25:30.139Z,99912.31
2022-12-01T04:27:56.617Z,99910.44
2022-12-01T04:30:23.512Z,99911.88
2022-12-01T04:32:49.998Z,99917.72
2022-12-01T04:35:16.552Z,99919.81
2022-12-01T04:37:43.210Z,99904.84
2022-12-01T04:40:10.214Z,99917.31
2022-12-01T04:42:36.768Z,99922.19
2022-12-01T04:45:03.862Z,99919.22
2022-12-01T04:47:30.397Z,99919.47
2022-12-01T04:49:56.914Z,99921.81
2022-12-01T04:52:23.691Z,99918.72
2022-12-01T04:54:50.179Z,99915.28
2022-12-01T04:57:16.691Z,99915.34
2022-12-01T04:59:43.308Z,99914.63
2022-12-01T05:02:09.963Z,99916.19
2022-12-01T05:04:38.797Z,99928.38
2022-12-01T05:07:05.752Z,99923.78
2022-12-01T05:09:32.291Z,99920.38
2022-12-01T05:11:58.788Z,99918.72
2022-12-01T05:14:25.412Z,99926.06
2022-12-01T05:16:51.908Z,99932.16
2022-12-01T05:19:37.119Z,99924.41
2022-12-01T05:22:03.686Z,99926.50
2022-12-01T05:24:30.190Z,99927.81
2022-12-01T05:26:56.818Z,99925.25
2022-12-01T05:29:23.436Z,99933.81
2022-12-01T05:31:50.001Z,99930.66
2022-12-01T05:34:16.805Z,99930.25
2022-12-01T05:36:43.440Z,99933.59
2022-12-01T05:39:09.942Z,99940.50
2022-12-01T05:41:36.550Z,99937.22
2022-12-01T05:44:03.515Z,99936.97
2022-12-01T05:46:30.015Z,99938.09
2022-12-01T05:48:56.672Z,99931.44
2022-12-01T05:51:23.219Z,99935.78
2022-12-01T05:53:49.954Z,99931.41
2022-12-01T05:56:16.523Z,99933.59
2022-12-01T05:58:43.128Z,99929.03
2022-12-01T06:01:09.689Z,99937.41
2022-12-01T06:03:36.313Z,99942.13
2022-12-01T06:06:02.917Z,99937.41
2022-12-01T06:08:29.483Z,99942.81
2022-12-01T06:10:56.065Z,99944.50
2022-12-01T06:13:22.636Z,99940.78
2022-12-01T06:15:57.549Z,99943.88
2022-12-01T06:18:24.933Z,99945.78
2022-12-01T06:20:51.415Z,99946.72
2022-12-01T06:23:18.141Z,99947.34
2022-12-01T06:25:44.711Z,99940.09
2022-12-01T06:28:11.180Z,99945.06
2022-12-01T06:30:37.818Z,99953.78
2022-12-01T06:33:04.471Z,99954.81
2022-12-01T06:35:31.005Z,99951.50
2022-12-01T06:37:57.631Z,99952.16
2022-12-01T06:40:24.358Z,99956.28
2022-12-01T06:42:50.836Z,99965.78
2022-12-01T06:45:17.411Z,99957.59
2022-12-01T06:47:44.003Z,99963.19
2022-12-01T06:50:11.907Z,99960.41
2022-12-01T06:52:38.535Z,99965.00
2022-12-01T06:55:06.036Z,99958.50
2022-12-01T06:57:32.774Z,99959.34
2022-12-01T06:59:59.578Z,99961.47
2022-12-01T07:02:26.649Z,99959.84
2022-12-01T07:04:53.207Z,99964.50
2022-12-01T07:07:19.902Z,99960.88
2022-12-01T07:09:46.771Z,99968.09
2022-12-01T07:12:13.468Z,99968.75
2022-12-01T07:14:42.548Z,99970.59
2022-12-01T07:17:09.932Z,99971.00
2022-12-01T07:19:36.543Z,99984.19
2022-12-01T07:22:03.261Z,99990.56
2022-12-01T07:24:30.620Z,99988.69
2022-12-01T07:26:57.115Z,99990.84
2022-12-01T07:29:23.782Z,99998.06
2022-12-01T07:31:50.331Z,99995.53
2022-12-01T07:34:16.820Z,100017.69
2022-12-01T07:36:43.381Z,100005.88
2022-12-01T07:39:09.914Z,100010.72
2022-12-01T07:41:36.432Z,100009.75
2022-12-01T07:44:03.272Z,100018.44
2022-12-01T07:46:30.000Z,100016.22
2022-12-01T07:48:57.141Z,100013.25
2022-12-01T07:51:25.520Z,100021.25
2022-12-01T07:53:53.123Z,100018.97
2022-12-01T07:56:20.929Z,100020.66
2022-12-01T07:58:47.589Z,100025.06
2022-12-01T08:01:16.792Z,100022.31
2022-12-01T08:03:43.729Z,100031.72
2022-12-01T08:06:11.809Z,100031.34
2022-12-01T08:08:40.108Z,100036.53
2022-12-01T08:11:18.999Z,100039.13
2022-12-01T08:13:45.760Z,100035.72
2022-12-01T08:16:14.833Z,100037.53
2022-12-01T08:18:42.872Z,100033.75
2022-12-01T08:21:12.348Z,100037.31
2022-12-01T08:23:39.197Z,100032.78
2022-12-01T08:26:09.226Z,100025.84
2022-12-01T08:28:36.923Z,100028.72
2022-12-01T08:31:18.292Z,100034.78
2022-12-01T08:33:45.771Z,100031.59
2022-12-01T08:36:12.353Z,100032.22
2022-12-01T08:38:39.051Z,100042.75
2022-12-01T08:41:08.347Z,100042.25
2022-12-01T08:46:28.886Z,100038.03
2022-12-01T08:48:57.863Z,100040.31
2022-12-01T08:51:25.699Z,100039.72
2022-12-01T08:53:52.343Z,100043.50
2022-12-01T08:56:24.229Z,100040.72
2022-12-01T08:58:51.779Z,100043.88
2022-12-01T09:01:19.390Z,100047.03
2022-12-01T09:03:46.860Z,100050.56
2022-12-01T09:06:20.287Z,100051.28
2022-12-01T09:08:47.496Z,100047.50
2022-12-01T09:11:16.827Z,100052.91
2022-12-01T09:13:45.422Z,100054.25
2022-12-01T09:16:16.140Z,100050.63
2022-12-01T09:18:44.364Z,100054.25
2022-12-01T09:21:20.071Z,100048.56
2022-12-01T09:23:47.269Z,100050.84
2022-12-01T09:26:18.637Z,100051.00
2022-12-01T09:28:50.131Z,100051.09
2022-12-01T09:31:18.517Z,100051.94
2022-12-01T09:33:45.162Z,100049.13
2022-12-01T09:36:12.049Z,100046.09
2022-12-01T09:38:39.090Z,100047.38
2022-12-01T09:41:11.864Z,100050.69
2022-12-01T09:43:45.959Z,100054.63
2022-12-01T09:46:18.462Z,100047.88
2022-12-01T09:48:51.476Z,100044.69
2022-12-01T09:51:28.257Z,100048.84
2022-12-01T09:53:58.375Z,100047.06
2022-12-01T09:56:32.446Z,100047.53
2022-12-01T09:59:02.341Z,100043.34
2022-12-01T10:01:35.692Z,100045.91
2022-12-01T10:04:28.603Z,100037.53
2022-12-01T10:07:00.824Z,100046.78
2022-12-01T10:09:41.548Z,100044.78
2022-12-01T10:12:15.259Z,100036.97
2022-12-01T10:14:45.507Z,100043.28
2022-12-01T10:17:34.746Z,100037.44
2022-12-01T10:20:25.050Z,100033.94
2022-12-01T10:22:54.360Z,100023.94
2022-12-01T10:25:28.914Z,100029.50
2022-12-01T10:28:22.295Z,100033.38
2022-12-01T10:30:51.399Z,100026.50
2022-12-01T10:33:24.992Z,100019.66
2022-12-01T10:35:52.756Z,100018.00
2022-12-01T10:38:29.654Z,100024.16
2022-12-01T10:40:59.959Z,100015.81
2022-12-01T10:43:34.055Z,100022.59
2022-12-01T10:46:05.892Z,100017.38
2022-12-01T10:48:32.476Z,100014.09
2022-12-01T10:51:15.897Z,100013.59
2022-12-01T10:53:42.511Z,100013.31
2022-12-01T10:56:16.158Z,100005.25
2022-12-01T10:58:53.801Z,100007.28
2022-12-01T11:01:24.748Z,100005.19
2022-12-01T11:03:55.606Z,99997.78
2022-12-01T11:06:25.937Z,100000.81
2022-12-01T11:09:00.036Z,100000.44
2022-12-01T11:11:28.647Z,100000.44
2022-12-01T11:13:56.875Z,99996.91
2022-12-01T11:16:44.853Z,99999.06
2022-12-01T11:19:14.312Z,99999.44
2022-12-01T11:21:52.910Z,99998.75
2022-12-01T11:24:44.884Z,100005.28
2022-12-01T11:27:21.276Z,99994.22
2022-12-01T11:29:54.698Z,100003.50
2022-12-01T11:32:23.473Z,100004.13
2022-12-01T11:35:04.492Z,99996.03
2022-12-01T11:37:50.480Z,99993.72
2022-12-01T11:40:44.939Z,99995.25
2022-12-01T11:43:43.743Z,99989.16
2022-12-01T11:46:13.248Z,99993.97
2022-12-01T11:48:40.484Z,99988.44
2022-12-01T11:51:08.715Z,99991.94
2022-12-01T11:53:38.152Z,99989.56
2022-12-01T11:56:28.895Z,99986.19
2022-12-01T11:59:06.544Z,99991.25
2022-12-01T12:01:42.098Z,99996.88
2022-12-01T12:04:09.138Z,99989.13
2022-12-01T12:07:17.809Z,99991.44
2022-12-01T12:10:03.540Z,99995.75
2022-12-01T12:12:36.572Z,99996.19
2022-12-01T12:15:16.317Z,99992.75
2022-12-01T12:18:21.252Z,99988.34
2022-12-01T12:21:15.851Z,99989.19
2022-12-01T12:23:55.747Z,99986.66
2022-12-01T12:26:27.023Z,99990.75
2022-12-01T12:29:30.503Z,99978.31
2022-12-01T12:32:23.392Z,99996.56
2022-12-01T12:35:18.316Z,99984.41
2022-12-01T12:38:00.354Z,99990.47
2022-12-01T12:40:40.949Z,99984.63
2022-12-01T12:43:10.518Z,99978.44
2022-12-01T12:45:59.979Z,99987.41
2022-12-01T12:48:29.355Z,99980.66
2022-12-01T12:51:04.476Z,99978.72
2022-12-01T12:53:41.110Z,99981.13
2022-12-01T12:56:13.988Z,99973.19
2022-12-01T12:58:57.574Z,99978.66
2022-12-01T13:01:26.974Z,99970.56
2022-12-01T13:03:56.453Z,99978.44
2022-12-01T13:06:32.792Z,99963.44
2022-12-01T13:09:08.174Z,99968.78
2022-12-01T13:11:59.637Z,99957.13
2022-12-01T13:14:37.167Z,99966.03
2022-12-01T13:17:26.100Z,99954.59
2022-12-01T13:19:52.589Z,99963.63
2022-12-01T13:22:29.641Z,99972.66
2022-12-01T13:24:56.532Z,99963.63
2022-12-01T13:27:25.776Z,99963.94
2022-12-01T13:29:54.032Z,99954.34
2022-12-01T13:58:25.111Z,99963.69
2022-12-01T14:00:51.875Z,99968.59
2022-12-01T14:03:21.448Z,99960.16
2022-12-01T14:05:57.711Z,99964.59
2022-12-01T14:08:28.630Z,99958.50
2022-12-01T14:11:07.306Z,99960.88
2022-12-01T14:13:46.032Z,99962.88
2022-12-01T14:16:12.908Z,99963.78
2022-12-01T14:18:44.322Z,99957.78
2022-12-01T14:21:12.490Z,99965.00
2022-12-01T14:23:59.848Z,99963.28
2022-12-01T14:26:28.698Z,99982.44
2022-12-01T14:28:55.909Z,99968.19
2022-12-01T14:31:24.628Z,99971.38
2022-12-01T14:33:59.248Z,99978.06
2022-12-01T14:40:18.039Z,99975.25
2022-12-01T14:43:06.096Z,99970.66
2022-12-01T14:45:40.087Z,99968.75
2022-12-01T14:48:12.686Z,99964.59
2022-12-01T14:50:46.950Z,99966.19
2022-12-01T14:53:20.932Z,99967.97
2022-12-01T14:56:14.850Z,99964.34
2022-12-01T14:58:52.392Z,99980.31
2022-12-01T15:01:20.861Z,99964.66
2022-12-01T15:03:51.415Z,99968.63
2022-12-01T15:06:24.544Z,99969.66
2022-12-01T15:12:01.947Z,99968.94
2022-12-01T15:14:35.063Z,99972.56
2022-12-01T15:17:05.694Z,99966.91
2022-12-01T15:19:34.618Z,99958.34
2022-12-01T15:22:06.061Z,99964.38
2022-12-01T15:24:34.290Z,99962.06
2022-12-01T15:27:04.032Z,99964.59
2022-12-01T15:29:58.718Z,99967.59
2022-12-01T15:32:27.157Z,99965.00
2022-12-01T15:34:55.671Z,99961.94
2022-12-01T15:37:25.167Z,99964.03
2022-12-01T15:40:00.905Z,99970.03
2022-12-01T15:42:39.680Z,99978.34
2022-12-01T15:45:15.284Z,99975.84
2022-12-01T15:47:43.677Z,99975.94
2022-12-01T15:50:31.299Z,99977.84
2022-12-01T15:52:59.410Z,99976.25
2022-12-01T15:55:30.882Z,99976.94
2022-12-01T15:57:58.840Z,99973.00
2022-12-01T16:00:26.285Z,99978.41
2022-12-01T16:02:55.493Z,99976.72
2022-12-01T16:05:29.198Z,99976.94
2022-12-01T16:08:13.375Z,99983.31
2022-12-01T16:10:40.612Z,99980.16
2022-12-01T16:13:40.887Z,99982.28
2022-12-01T16:16:30.223Z,99984.31
2022-12-01T16:19:02.216Z,99980.50
2022-12-01T16:21:32.991Z,99976.25
2022-12-01T16:24:05.308Z,99983.59
2022-12-01T16:26:33.479Z,99985.34
2022-12-01T16:29:00.408Z,99982.19
2022-12-01T16:31:27.509Z,99982.13
2022-12-01T16:34:09.836Z,99982.84
2022-12-01T16:36:45.488Z,99983.06
2022-12-01T16:39:16.417Z,99984.09
2022-12-01T16:41:47.940Z,99993.91
2022-12-01T16:44:30.609Z,99988.72
2022-12-01T16:46:57.485Z,99996.22
2022-12-01T16:49:24.186Z,99987.84
2022-12-01T16:51:56.042Z,100002.94
2022-12-01T16:54:23.962Z,100010.47
2022-12-01T16:56:51.334Z,99997.44
2022-12-01T16:59:18.428Z,99993.09
2022-12-01T17:01:45.179Z,99996.16
2022-12-01T17:04:11.919Z,99996.41
2022-12-01T17:06:38.791Z,99994.38
2022-12-01T17:09:05.890Z,99987.47
2022-12-01T17:11:33.139Z,99985.06
2022-12-01T17:13:59.875Z,99987.97
2022-12-01T17:16:27.078Z,99994.50
2022-12-01T17:18:53.861Z,99991.47
2022-12-01T17:21:20.521Z,99999.41
2022-12-01T17:23:47.433Z,99995.69
2022-12-01T17:26:19.737Z,99997.19
2022-12-01T17:28:46.967Z,100004.56
2022-12-01T17:31:14.454Z,99996.59
2022-12-01T17:33:41.522Z,99989.25
2022-12-01T17:36:11.588Z,99994.34
2022-12-01T17:38:39.987Z,99992.94
2022-12-01T17:41:09.512Z,99998.69
2022-12-01T17:43:37.268Z,100004.88
2022-12-01T17:46:05.809Z,100000.09
2022-12-01T17:48:44.405Z,99990.13
2022-12-01T17:51:12.855Z,100001.88
2022-12-01T17:53:40.365Z,99994.78
2022-12-01T17:56:12.634Z,99999.63
2022-12-01T17:58:40.182Z,100001.09
2022-12-01T18:01:12.965Z,99993.06
2022-12-01T18:03:39.531Z,99998.81
2022-12-01T18:06:06.437Z,99988.41
2022-12-01T18:08:35.700Z,99998.63
2022-12-01T18:11:07.809Z,99999.28
2022-12-01T18:13:43.805Z,99994.03
2022-12-01T18:16:17.000Z,99995.44
2022-12-01T18:18:44.036Z,99998.06
2022-12-01T18:21:14.615Z,100002.94
2022-12-01T18:23:41.560Z,100016.25
2022-12-01T18:26:15.932Z,100008.88
2022-12-01T18:28:43.565Z,100012.13
2022-12-01T18:31:12.944Z,100014.13
2022-12-01T18:33:42.027Z,100014.25
2022-12-01T18:36:14.410Z,100014.50
2022-12-01T18:38:41.263Z,100016.44
2022-12-01T18:41:08.317Z,100020.25
2022-12-01T18:43:34.963Z,100015.09
2022-12-01T18:46:04.087Z,100016.88
2022-12-01T18:48:30.781Z,100011.31
2022-12-01T18:51:03.001Z,100003.31
2022-12-01T18:53:29.824Z,100004.88
2022-12-01T18:55:56.504Z,100011.13
2022-12-01T18:58:23.128Z,100015.91
2022-12-01T19:00:49.834Z,100012.41
2022-12-01T19:03:16.435Z,100015.19
2022-12-01T19:05:43.196Z,100009.34
2022-12-01T19:08:09.829Z,100009.00
2022-12-01T19:10:36.433Z,100015.84
2022-12-01T19:13:03.230Z,100002.78
2022-12-01T19:15:29.890Z,100005.59
2022-12-01T19:17:56.409Z,100009.56
2022-12-01T19:20:23.048Z,100005.63
2022-12-01T19:22:49.532Z,100007.47
2022-12-01T19:25:16.065Z,100002.13
2022-12-01T19:27:42.799Z,100005.38
2022-12-01T19:30:09.806Z,99998.31
2022-12-01T19:32:36.488Z,99999.88
2022-12-01T19:35:03.722Z,100000.16
2022-12-01T19:37:30.257Z,100000.06
2022-12-01T19:39:56.764Z,99992.03
2022-12-01T19:42:23.543Z,100001.16
2022-12-01T19:44:50.534Z,99994.63
2022-12-01T19:47:21.867Z,99994.25
2022-12-01T19:49:49.080Z,99997.16
2022-12-01T19:52:15.583Z,100001.03
2022-12-01T19:54:42.739Z,100006.28
2022-12-01T19:57:09.365Z,100009.59
2022-12-01T19:59:35.924Z,100001.22
2022-12-01T20:02:02.508Z,100006.41
2022-12-01T20:04:29.268Z,100016.94
2022-12-01T20:06:55.774Z,100009.09
2022-12-01T20:09:22.689Z,100024.91
2022-12-01T20:11:49.312Z,100015.88
2022-12-01T20:14:15.995Z,100017.69
2022-12-01T20:16:42.505Z,100020.22
2022-12-01T20:19:10.558Z,100021.59
2022-12-01T20:21:42.281Z,100017.06
2022-12-01T20:24:13.201Z,100024.41
2022-12-01T20:26:46.100Z,100016.47
2022-12-01T20:29:24.522Z,100027.44
2022-12-01T20:31:52.895Z,100024.03
2022-12-01T20:34:32.309Z,100028.97
2022-12-01T20:36:59.384Z,100025.84
2022-12-01T20:39:26.989Z,100028.09
2022-12-01T20:41:53.700Z,100038.91
2022-12-01T20:44:20.667Z,100027.22
2022-12-01T20:46:47.742Z,100030.06
2022-12-01T20:49:16.085Z,100028.56
2022-12-01T20:51:42.805Z,100036.13
2022-12-01T20:54:29.279Z,100040.59
2022-12-01T20:56:56.760Z,100038.41
2022-12-01T20:59:23.690Z,100044.44
2022-12-01T21:01:50.208Z,100044.75
2022-12-01T21:04:17.833Z,100044.53
2022-12-01T21:06:44.495Z,100043.59
2022-12-01T21:09:13.024Z,100041.97
2022-12-01T21:12:05.298Z,100031.59
2022-12-01T21:14:47.438Z,100041.03
2022-12-01T21:17:29.699Z,100028.41
2022-12-01T21:20:02.462Z,100030.72
2022-12-01T21:22:29.073Z,100037.75
2022-12-01T21:25:06.962Z,100027.22
2022-12-01T21:27:33.668Z,100040.66
2022-12-01T21:30:00.804Z,100028.41
2022-12-01T21:32:31.533Z,100022.97
2022-12-01T21:35:07.721Z,100027.97
2022-12-01T21:37:34.437Z,100029.16
2022-12-01T21:40:00.977Z,100015.78
2022-12-01T21:42:30.497Z,100017.78
2022-12-01T21:44:57.708Z,100020.88
2022-12-01T21:47:27.251Z,100018.44
2022-12-01T21:49:59.567Z,100013.13
2022-12-01T21:52:30.352Z,100016.50
2022-12-01T21:55:23.409Z,100017.38
2022-12-01T21:57:51.947Z,100015.78
2022-12-01T22:00:21.673Z,100020.81
2022-12-01T22:02:50.868Z,100017.06
2022-12-01T22:05:38.172Z,100021.94
2022-12-01T22:08:26.795Z,100014.09
2022-12-01T22:11:02.046Z,100018.78
2022-12-01T22:13:45.285Z,100013.25
2022-12-01T22:16:25.932Z,100017.66
2022-12-01T22:18:55.262Z,100020.34
2022-12-01T22:21:21.703Z,100009.84
2022-12-01T22:24:10.131Z,100012.50
2022-12-01T22:26:47.819Z,100017.59
2022-12-01T22:29:26.373Z,100014.91
2022-12-01T22:32:22.214Z,100022.34
2022-12-01T22:34:56.395Z,100022.09
2022-12-01T22:37:39.630Z,100020.72
2022-12-01T22:40:34.745Z,100018.03
2022-12-01T22:43:21.102Z,100029.31
2022-12-01T22:46:00.967Z,100018.63
2022-12-01T22:48:27.534Z,100028.94
2022-12-01T22:50:54.589Z,100024.78
2022-12-01T22:53:31.089Z,100033.28
2022-12-01T22:56:00.760Z,100027.78
2022-12-01T22:58:32.122Z,100023.75
2022-12-01T23:01:07.713Z,100019.72
2022-12-01T23:03:34.315Z,100027.84
2022-12-01T23:06:00.836Z,100018.22
2022-12-01T23:08:27.427Z,100016.56
2022-12-01T23:10:54.051Z,100020.13
2022-12-01T23:13:23.217Z,100016.75
2022-12-01T23:15:51.957Z,100012.91
2022-12-01T23:18:28.312Z,100011.53
2022-12-01T23:21:00.249Z,100011.84
2022-12-01T23:23:31.930Z,100015.00
2022-12-01T23:25:59.240Z,100012.91
2022-12-01T23:28:25.804Z,100011.53
2022-12-01T23:30:56.425Z,100005.56
2022-12-01T23:33:31.676Z,100014.69
2022-12-01T23:36:01.087Z,100011.75
2022-12-01T23:38:38.054Z,100011.13
2022-12-01T23:41:07.623Z,100012.28
2022-12-01T23:43:43.055Z,100006.31
2022-12-01T23:46:22.850Z,100010.88
2022-12-01T23:48:57.357Z,100006.09
2022-12-01T23:51:39.883Z,100000.72
2022-12-01T23:54:23.671Z,100002.53
2022-12-01T23:56:53.950Z,99994.00
2022-12-01T23:59:21.330Z,99988.28
